Terminal Aerodrome Forecast
Issued by NWS Sterling, VA

Current Version | Previous Version | Graphics & Text | Print | Product List | Glossary On
Versions: 1 2 3 4 5 6 7 8 9 10 11 12 13 14 15 16 17 18 19 20 21 22 23 24 25 26 27 28
000
FTUS41 KLWX 220233 AAB
TAFDCA
TAF AMD
KDCA 220233Z 2203/2224 VRB03KT 1SM BR OVC005
     FM220600 VRB03KT 1 1/2SM -RA BR OVC003
     FM220900 07004KT 1/4SM FG OVC003
     FM221400 05005KT 1 1/2SM BR OVC003
     FM221800 06007KT 1SM -RA BR OVC003=

USA.gov is the U.S. government's official web portal to all federal, state and local government web resources and services.